aviador You're here:

PAVL Decoded Metar

KIVALINA in AK, USA
Report Time2017-09-26 02:53:00
UTC Time2017-09-26 03:34:20
Flight Rules vfr VFR
Wind020° at 23 Gusting to 34 kt
W.Decomp.*RWY 30: 9.7 kt HW 20.8 kt RCW
W.Rank020° ranks 1
Current wind is above 020° avg. (13.9)
Visibility9999 m
Phenomena:N/A
Clouds:N/A
Expected CloudBase > 2,800 ft AGL from Temp-Dew spread
CeilingNone
Temp04°C (ISA -11)
Dew Point-3°C (61% RH)
AAT-6.6°C
QNH1018 hPa
Density Alt-1,421 ft
Elevation10 ft
Report Wrong Elevation
Raw Report
PAVL 260253Z AUTO 02023G34KT 10SM CLR 04/M03 A3005 RMK AO2 PK WND
02035/0234 SLP174 6//// T00391033 53010 TSNO PNO $=

Extra information for PAVL:More info

Metar Taf Metar & Taf Last 4 Metars F.Rules Stats Wind Profile Meteogram Temp Stats Airport Information Weather charts Add Link Nearby VenuesMetar ALERT Operation Metar Decoded Social comments

AIRNAV info for PAVL